Time;durP1;ratioP1;P1;durP2;ratioP2;P2;SDS_P1;SDS_P2;PMS_P1;PMS_P2;Temp;Humidity;BMP_temperature;BMP_pressure;BME280_temperature;BME280_humidity;BME280_pressure;Samples;Min_cycle;Max_cycle;Signal;HPM_P1;HPM_P2
2023/07/07 00:01:42;;;;;;;9.07;4.87;;;;;;;;;;5043432;28;20035;-56
2023/07/07 00:04:08;;;;;;;10.30;5.47;;;;;;;;;;5044533;28;20408;-54
2023/07/07 00:06:33;;;;;;;8.50;5.10;;;;;;;;;;5006278;28;20262;-56
2023/07/07 00:08:59;;;;;;;9.38;5.28;;;;;;;;;;5043397;28;20035;-54
2023/07/07 00:11:25;;;;;;;11.00;4.78;;;;;;;;;;5043367;28;20475;-53
2023/07/07 00:13:52;;;;;;;9.27;4.80;;;;;;;;;;5043689;28;20060;-52
2023/07/07 00:16:19;;;;;;;9.07;4.68;;;;;;;;;;5041893;28;20425;-53
2023/07/07 00:18:44;;;;;;;7.03;4.40;;;;;;;;;;5023662;28;20447;-54
2023/07/07 00:21:10;;;;;;;9.23;4.27;;;;;;;;;;5043054;28;20021;-52
2023/07/07 00:23:37;;;;;;;7.90;4.85;;;;;;;;;;5043779;28;20622;-56
2023/07/07 00:26:04;;;;;;;9.38;4.97;;;;;;;;;;5042745;28;20041;-56
2023/07/07 00:28:30;;;;;;;11.35;4.90;;;;;;;;;;5042211;28;20407;-54
2023/07/07 00:30:56;;;;;;;8.63;5.13;;;;;;;;;;5041374;28;20021;-53
2023/07/07 00:33:21;;;;;;;8.98;5.05;;;;;;;;;;5043981;28;20037;-55
2023/07/07 00:35:47;;;;;;;9.70;5.37;;;;;;;;;;5042640;28;20817;-55
2023/07/07 00:38:12;;;;;;;8.13;5.30;;;;;;;;;;5043073;28;20265;-54
2023/07/07 00:40:37;;;;;;;10.03;5.10;;;;;;;;;;5041142;28;20032;-54
2023/07/07 00:43:09;;;;;;;8.77;4.67;;;;;;;;;;5024182;28;20673;-54
2023/07/07 00:45:34;;;;;;;9.05;5.63;;;;;;;;;;5023303;28;20828;-56
2023/07/07 00:48:01;;;;;;;6.72;5.13;;;;;;;;;;5040935;28;20056;-55
2023/07/07 00:50:36;;;;;;;8.23;5.22;;;;;;;;;;5043087;28;20108;-54
2023/07/07 00:53:02;;;;;;;9.45;5.40;;;;;;;;;;5043023;28;20045;-53
2023/07/07 00:55:30;;;;;;;8.48;5.03;;;;;;;;;;5043427;28;20032;-54
2023/07/07 00:57:56;;;;;;;10.05;5.13;;;;;;;;;;5022447;28;20029;-53
2023/07/07 01:00:21;;;;;;;9.15;5.65;;;;;;;;;;5042613;28;20514;-53
2023/07/07 01:02:53;;;;;;;8.80;5.47;;;;;;;;;;5042347;28;20028;-54
2023/07/07 01:05:19;;;;;;;10.27;5.25;;;;;;;;;;5043693;28;20017;-55
2023/07/07 01:07:45;;;;;;;9.77;5.43;;;;;;;;;;5041640;28;20128;-55
2023/07/07 01:10:10;;;;;;;11.85;5.97;;;;;;;;;;5042627;28;20017;-55
2023/07/07 01:12:36;;;;;;;8.35;5.13;;;;;;;;;;5023072;28;20098;-52
2023/07/07 01:15:02;;;;;;;9.88;5.88;;;;;;;;;;5043272;28;20407;-56
2023/07/07 01:17:46;;;;;;;7.65;4.88;;;;;;;;;;5041585;28;20017;-56
2023/07/07 01:20:30;;;;;;;10.55;5.43;;;;;;;;;;5040357;28;20017;-55
2023/07/07 01:22:59;;;;;;;10.48;5.13;;;;;;;;;;5042266;28;20025;-52
2023/07/07 01:25:43;;;;;;;8.43;5.53;;;;;;;;;;5041445;28;20028;-56
2023/07/07 01:28:11;;;;;;;10.82;6.13;;;;;;;;;;5041663;28;20028;-54
2023/07/07 01:30:36;;;;;;;17.33;6.82;;;;;;;;;;5042283;28;20432;-56
2023/07/07 01:33:02;;;;;;;11.23;6.20;;;;;;;;;;5040613;28;20174;-54
2023/07/07 01:35:28;;;;;;;319.00;285.30;;;;;;;;;;5039992;28;20052;-51
2023/07/07 01:37:55;;;;;;;634.83;451.00;;;;;;;;;;5040838;28;20406;-55
2023/07/07 01:40:21;;;;;;;402.48;296.08;;;;;;;;;;5043099;28;20028;-53
2023/07/07 01:42:50;;;;;;;436.77;400.63;;;;;;;;;;5042432;28;20031;-51
2023/07/07 01:45:15;;;;;;;569.70;450.27;;;;;;;;;;5043027;28;20101;-54
2023/07/07 01:47:42;;;;;;;821.75;493.55;;;;;;;;;;5039951;28;20037;-53
2023/07/07 01:50:14;;;;;;;792.05;436.33;;;;;;;;;;5046178;28;20079;-52
2023/07/07 01:52:43;;;;;;;770.35;490.27;;;;;;;;;;5039636;28;20054;-52
2023/07/07 01:55:19;;;;;;;824.05;497.58;;;;;;;;;;5044938;28;20036;-54
2023/07/07 01:57:46;;;;;;;809.95;469.17;;;;;;;;;;5045861;28;20029;-50
2023/07/07 02:00:12;;;;;;;841.95;539.80;;;;;;;;;;5046582;28;20087;-54
2023/07/07 02:02:38;;;;;;;797.95;472.92;;;;;;;;;;5022568;28;20033;-51
2023/07/07 02:05:03;;;;;;;793.33;463.67;;;;;;;;;;5045527;28;20119;-53
2023/07/07 02:07:29;;;;;;;799.38;470.65;;;;;;;;;;5045093;28;20117;-52
2023/07/07 02:09:54;;;;;;;797.22;470.83;;;;;;;;;;5046362;28;20033;-55
2023/07/07 02:12:19;;;;;;;794.38;454.73;;;;;;;;;;5044170;28;20488;-54
2023/07/07 02:14:44;;;;;;;791.22;454.73;;;;;;;;;;5045254;28;20386;-54
2023/07/07 02:17:10;;;;;;;789.90;456.95;;;;;;;;;;5009557;28;20056;-54
2023/07/07 02:19:35;;;;;;;800.58;473.20;;;;;;;;;;5045182;28;20024;-53
2023/07/07 02:22:00;;;;;;;813.60;484.85;;;;;;;;;;5043424;28;20105;-54
2023/07/07 02:24:25;;;;;;;817.00;505.25;;;;;;;;;;5045406;28;20472;-53
2023/07/07 02:26:51;;;;;;;820.80;497.33;;;;;;;;;;4999321;28;20035;-51
2023/07/07 02:29:16;;;;;;;825.72;513.92;;;;;;;;;;5025993;28;20112;-55
2023/07/07 02:31:41;;;;;;;825.80;507.88;;;;;;;;;;5037735;28;20353;-51
2023/07/07 02:34:07;;;;;;;823.83;516.72;;;;;;;;;;5006705;28;20120;-49
2023/07/07 02:36:32;;;;;;;833.63;519.63;;;;;;;;;;5044737;28;20021;-55
2023/07/07 02:38:57;;;;;;;834.75;520.38;;;;;;;;;;5044405;28;20051;-55
2023/07/07 02:41:22;;;;;;;830.55;517.78;;;;;;;;;;5043216;28;20156;-52
2023/07/07 02:43:48;;;;;;;830.20;508.85;;;;;;;;;;5045498;28;20021;-52
2023/07/07 02:46:13;;;;;;;831.47;505.23;;;;;;;;;;5043637;28;20029;-53
2023/07/07 02:48:38;;;;;;;831.30;517.60;;;;;;;;;;5044719;28;20033;-50
2023/07/07 02:51:05;;;;;;;833.63;512.88;;;;;;;;;;5042412;28;20124;-52
2023/07/07 02:53:32;;;;;;;837.47;508.08;;;;;;;;;;5044190;28;20412;-55
2023/07/07 02:55:57;;;;;;;837.42;510.08;;;;;;;;;;5043546;28;20100;-52
2023/07/07 02:58:23;;;;;;;839.20;509.35;;;;;;;;;;5045703;28;20532;-51
2023/07/07 03:00:48;;;;;;;835.65;505.15;;;;;;;;;;5043360;28;20021;-53
2023/07/07 03:03:14;;;;;;;832.13;505.40;;;;;;;;;;5043679;28;20385;-51
2023/07/07 03:05:39;;;;;;;831.92;495.42;;;;;;;;;;5044502;28;20029;-53
2023/07/07 03:08:05;;;;;;;825.47;482.60;;;;;;;;;;5045340;28;20423;-51
2023/07/07 03:10:31;;;;;;;820.45;472.00;;;;;;;;;;5042879;28;20385;-53
2023/07/07 03:12:56;;;;;;;829.65;485.27;;;;;;;;;;5043087;28;20128;-55
2023/07/07 03:15:21;;;;;;;828.47;488.13;;;;;;;;;;5045381;28;20171;-52
2023/07/07 03:17:47;;;;;;;823.65;478.35;;;;;;;;;;5006098;28;20045;-55
2023/07/07 03:20:13;;;;;;;830.05;473.60;;;;;;;;;;5045232;28;20464;-51
2023/07/07 03:22:38;;;;;;;817.22;463.83;;;;;;;;;;5043833;28;20496;-50
2023/07/07 03:25:03;;;;;;;817.83;469.60;;;;;;;;;;5043077;28;20036;-56
2023/07/07 03:27:30;;;;;;;816.50;466.92;;;;;;;;;;5044148;28;20116;-52
2023/07/07 03:29:55;;;;;;;828.17;485.60;;;;;;;;;;5042880;28;20037;-54
2023/07/07 03:32:20;;;;;;;829.67;486.35;;;;;;;;;;5039608;28;20487;-51
2023/07/07 03:34:47;;;;;;;823.50;488.58;;;;;;;;;;5041665;28;20029;-51
2023/07/07 03:37:13;;;;;;;820.97;475.52;;;;;;;;;;5041750;28;20033;-55
2023/07/07 03:39:38;;;;;;;816.13;454.65;;;;;;;;;;5043976;28;20025;-51
2023/07/07 03:42:04;;;;;;;823.35;476.20;;;;;;;;;;5044164;28;20025;-52
2023/07/07 03:44:30;;;;;;;830.63;482.48;;;;;;;;;;5044480;28;20521;-53
2023/07/07 03:46:55;;;;;;;827.67;476.08;;;;;;;;;;5043579;28;20025;-52
2023/07/07 03:49:21;;;;;;;830.25;490.10;;;;;;;;;;5044242;28;20603;-52
2023/07/07 03:51:46;;;;;;;829.60;483.13;;;;;;;;;;5043911;28;20033;-53
2023/07/07 03:54:11;;;;;;;823.75;473.50;;;;;;;;;;5044082;28;20120;-54
2023/07/07 03:56:37;;;;;;;821.22;471.60;;;;;;;;;;5044330;28;20036;-52
2023/07/07 03:59:02;;;;;;;828.17;470.58;;;;;;;;;;5044684;28;20041;-53
2023/07/07 04:01:28;;;;;;;819.75;459.17;;;;;;;;;;5044692;28;20059;-51
2023/07/07 04:03:54;;;;;;;818.08;462.75;;;;;;;;;;5044060;28;20065;-54
2023/07/07 04:06:20;;;;;;;816.63;451.88;;;;;;;;;;5009026;28;20029;-54
2023/07/07 04:08:45;;;;;;;820.58;476.90;;;;;;;;;;5044037;28;20090;-54
2023/07/07 04:11:12;;;;;;;825.45;478.30;;;;;;;;;;5043291;28;20025;-51
2023/07/07 04:13:39;;;;;;;818.08;467.52;;;;;;;;;;5044314;28;20029;-51
2023/07/07 04:16:05;;;;;;;824.83;482.23;;;;;;;;;;5043947;28;20047;-54
2023/07/07 04:18:31;;;;;;;822.75;479.77;;;;;;;;;;5044343;28;20325;-49
2023/07/07 04:21:00;;;;;;;815.35;467.13;;;;;;;;;;5044121;28;20040;-53
2023/07/07 04:23:25;;;;;;;802.33;459.50;;;;;;;;;;5043965;28;20033;-54
2023/07/07 04:25:51;;;;;;;816.72;486.80;;;;;;;;;;5043877;28;20522;-54
2023/07/07 04:28:16;;;;;;;12.40;5.10;;;;;;;;;;5043887;28;20036;-53
2023/07/07 04:30:41;;;;;;;11.88;4.40;;;;;;;;;;5043504;28;20301;-53
2023/07/07 04:33:07;;;;;;;6.40;3.97;;;;;;;;;;5043839;28;20021;-50
2023/07/07 04:35:38;;;;;;;7.78;4.00;;;;;;;;;;5043903;28;20437;-55
2023/07/07 04:38:03;;;;;;;10.50;4.88;;;;;;;;;;5043764;28;20496;-56
2023/07/07 04:40:31;;;;;;;7.73;4.03;;;;;;;;;;5008105;28;20024;-56
2023/07/07 04:42:56;;;;;;;10.23;4.13;;;;;;;;;;5026091;28;20785;-54
2023/07/07 04:45:21;;;;;;;9.20;4.60;;;;;;;;;;5043911;28;20112;-56
2023/07/07 04:47:47;;;;;;;7.07;3.47;;;;;;;;;;5043674;28;20025;-56
2023/07/07 04:50:12;;;;;;;8.30;4.17;;;;;;;;;;5043790;28;20640;-53
2023/07/07 04:52:39;;;;;;;10.93;4.23;;;;;;;;;;5043555;28;20629;-55
2023/07/07 04:55:04;;;;;;;7.65;4.05;;;;;;;;;;5044166;28;20372;-53
2023/07/07 04:57:30;;;;;;;8.63;4.22;;;;;;;;;;5024685;28;20236;-54
2023/07/07 04:59:55;;;;;;;10.20;4.60;;;;;;;;;;5043352;28;20059;-51
2023/07/07 05:02:22;;;;;;;9.43;3.97;;;;;;;;;;5043612;28;20028;-55
2023/07/07 05:04:48;;;;;;;7.50;3.70;;;;;;;;;;5026168;28;20782;-52
2023/07/07 05:07:13;;;;;;;7.30;3.80;;;;;;;;;;5043627;28;20029;-56
2023/07/07 05:09:38;;;;;;;10.83;3.87;;;;;;;;;;5043396;28;20105;-55
2023/07/07 05:12:04;;;;;;;10.27;4.00;;;;;;;;;;5008113;28;20717;-55
2023/07/07 05:14:29;;;;;;;12.05;3.95;;;;;;;;;;5043427;28;20021;-56
2023/07/07 05:16:54;;;;;;;9.00;4.18;;;;;;;;;;5043388;28;20021;-56
2023/07/07 05:19:19;;;;;;;7.40;3.77;;;;;;;;;;5007923;28;20025;-51
2023/07/07 05:21:45;;;;;;;9.30;3.90;;;;;;;;;;5043488;28;20780;-52
2023/07/07 05:24:10;;;;;;;7.30;3.90;;;;;;;;;;5046548;28;20029;-57
2023/07/07 05:26:35;;;;;;;9.93;3.67;;;;;;;;;;5047403;28;20729;-55
2023/07/07 05:29:02;;;;;;;10.03;4.17;;;;;;;;;;5047194;28;20347;-54
2023/07/07 05:31:28;;;;;;;12.73;4.00;;;;;;;;;;5047019;28;20537;-57
2023/07/07 05:33:53;;;;;;;10.82;3.72;;;;;;;;;;5047149;28;20265;-54
2023/07/07 05:36:19;;;;;;;7.18;3.70;;;;;;;;;;5046954;28;20706;-54
2023/07/07 05:38:44;;;;;;;6.47;3.83;;;;;;;;;;5047158;28;20091;-55
2023/07/07 05:41:10;;;;;;;5.63;3.23;;;;;;;;;;5046923;28;20258;-56
2023/07/07 05:43:35;;;;;;;13.57;4.25;;;;;;;;;;5047362;28;20253;-53
2023/07/07 05:46:11;;;;;;;14.00;3.92;;;;;;;;;;5045233;28;20464;-54
2023/07/07 05:48:37;;;;;;;10.50;3.72;;;;;;;;;;5047009;28;20044;-53
2023/07/07 05:51:04;;;;;;;10.23;3.42;;;;;;;;;;5046419;28;20114;-54
2023/07/07 05:53:29;;;;;;;10.48;3.88;;;;;;;;;;5045276;28;20057;-54
2023/07/07 05:56:03;;;;;;;10.10;4.20;;;;;;;;;;5028802;28;20028;-55
2023/07/07 05:58:28;;;;;;;13.32;3.55;;;;;;;;;;5046899;28;20033;-54
2023/07/07 06:00:54;;;;;;;10.05;4.55;;;;;;;;;;5046679;28;20028;-52
2023/07/07 06:03:19;;;;;;;6.47;3.43;;;;;;;;;;5044947;28;20040;-54
2023/07/07 06:05:44;;;;;;;8.10;3.87;;;;;;;;;;5046869;28;20745;-54
2023/07/07 06:08:09;;;;;;;12.03;3.77;;;;;;;;;;5046640;28;20047;-54
2023/07/07 06:10:35;;;;;;;8.30;3.90;;;;;;;;;;5046981;28;20250;-52
2023/07/07 06:13:00;;;;;;;6.93;3.43;;;;;;;;;;5046197;28;20255;-54
2023/07/07 06:15:26;;;;;;;8.15;3.20;;;;;;;;;;5046580;28;20361;-56
2023/07/07 06:17:51;;;;;;;10.48;3.55;;;;;;;;;;5046079;28;20017;-55
2023/07/07 06:20:17;;;;;;;12.35;4.35;;;;;;;;;;5028529;28;20029;-53
2023/07/07 06:22:42;;;;;;;7.05;3.60;;;;;;;;;;5046049;28;20029;-52
2023/07/07 06:25:08;;;;;;;8.57;3.53;;;;;;;;;;5045957;28;20141;-49
2023/07/07 06:27:33;;;;;;;7.32;3.85;;;;;;;;;;5045974;28;20082;-51
2023/07/07 06:29:58;;;;;;;8.23;3.33;;;;;;;;;;5045374;28;20028;-55
2023/07/07 06:32:24;;;;;;;4.90;3.10;;;;;;;;;;5026926;28;20103;-51
2023/07/07 06:34:49;;;;;;;6.95;3.05;;;;;;;;;;5044716;28;20278;-52
2023/07/07 06:37:14;;;;;;;8.23;3.37;;;;;;;;;;5045484;28;20053;-52
2023/07/07 06:39:40;;;;;;;10.10;3.47;;;;;;;;;;5045874;28;20350;-54
2023/07/07 06:42:05;;;;;;;10.53;3.33;;;;;;;;;;5046653;28;20511;-53
2023/07/07 06:44:32;;;;;;;8.15;3.45;;;;;;;;;;4993727;28;20250;-54
2023/07/07 06:46:58;;;;;;;8.15;3.53;;;;;;;;;;5045710;28;20028;-54
2023/07/07 06:49:23;;;;;;;7.53;3.28;;;;;;;;;;5033440;28;20021;-53
2023/07/07 06:51:48;;;;;;;8.93;3.97;;;;;;;;;;5045608;28;20049;-54
2023/07/07 06:54:13;;;;;;;7.30;3.67;;;;;;;;;;5045662;28;20060;-53
2023/07/07 06:56:39;;;;;;;5.83;3.43;;;;;;;;;;5045487;28;20290;-51
2023/07/07 06:59:04;;;;;;;7.07;3.50;;;;;;;;;;5045359;28;20448;-52
2023/07/07 07:01:30;;;;;;;6.68;3.42;;;;;;;;;;5045453;28;20288;-55
2023/07/07 07:03:56;;;;;;;13.10;3.63;;;;;;;;;;5045210;28;20106;-52
2023/07/07 07:06:21;;;;;;;8.52;4.15;;;;;;;;;;5045222;28;20017;-56
2023/07/07 07:08:47;;;;;;;6.72;3.25;;;;;;;;;;5045487;28;20024;-54
2023/07/07 07:11:14;;;;;;;6.80;3.30;;;;;;;;;;5045013;28;20027;-54
2023/07/07 07:13:40;;;;;;;7.13;3.30;;;;;;;;;;5045432;28;20089;-53
2023/07/07 07:16:05;;;;;;;7.30;3.72;;;;;;;;;;5045031;28;20033;-54
2023/07/07 07:18:30;;;;;;;6.83;3.57;;;;;;;;;;5045241;28;20100;-51
2023/07/07 07:20:56;;;;;;;5.80;3.07;;;;;;;;;;5045541;28;20075;-55
2023/07/07 07:23:21;;;;;;;7.63;3.93;;;;;;;;;;5045038;28;20748;-54
2023/07/07 07:25:48;;;;;;;6.72;3.80;;;;;;;;;;5045022;28;20250;-54
2023/07/07 07:28:14;;;;;;;5.38;3.45;;;;;;;;;;5045142;28;20017;-53
2023/07/07 07:30:40;;;;;;;9.55;3.90;;;;;;;;;;5044699;28;20463;-57
2023/07/07 07:33:10;;;;;;;5.22;3.35;;;;;;;;;;5045274;28;20099;-55
2023/07/07 07:35:35;;;;;;;14.77;4.15;;;;;;;;;;5044606;28;20028;-54
2023/07/07 07:38:00;;;;;;;9.10;4.10;;;;;;;;;;5045089;28;20117;-56
2023/07/07 07:40:25;;;;;;;9.27;4.07;;;;;;;;;;5046493;28;20465;-57
2023/07/07 07:42:51;;;;;;;10.33;3.50;;;;;;;;;;5028503;28;20075;-50
2023/07/07 07:45:18;;;;;;;7.93;3.80;;;;;;;;;;5051121;28;20780;-56
2023/07/07 07:47:43;;;;;;;11.95;3.67;;;;;;;;;;5044727;28;20024;-54
2023/07/07 07:50:08;;;;;;;10.70;4.07;;;;;;;;;;5044498;28;20460;-57
2023/07/07 07:52:34;;;;;;;14.75;4.55;;;;;;;;;;5044348;28;20045;-54
2023/07/07 07:54:59;;;;;;;13.93;3.87;;;;;;;;;;5043803;28;20064;-56
2023/07/07 07:57:24;;;;;;;19.53;4.53;;;;;;;;;;5044595;28;20321;-56
2023/07/07 07:59:50;;;;;;;12.77;4.00;;;;;;;;;;5008436;28;20254;-51
2023/07/07 08:02:15;;;;;;;17.73;4.20;;;;;;;;;;5044205;28;20032;-52
2023/07/07 08:04:40;;;;;;;11.97;4.07;;;;;;;;;;5044377;28;20044;-55
2023/07/07 08:07:06;;;;;;;22.23;5.37;;;;;;;;;;5044336;28;20029;-55
2023/07/07 08:09:31;;;;;;;7.57;3.63;;;;;;;;;;5044397;28;20036;-53
2023/07/07 08:11:57;;;;;;;11.13;4.50;;;;;;;;;;5043953;28;20400;-55
2023/07/07 08:14:29;;;;;;;5.05;3.00;;;;;;;;;;5043794;28;20059;-54
2023/07/07 08:16:55;;;;;;;6.82;3.58;;;;;;;;;;5044694;28;20435;-51
2023/07/07 08:19:20;;;;;;;7.53;3.65;;;;;;;;;;5044118;28;20025;-53
2023/07/07 08:21:45;;;;;;;10.47;3.90;;;;;;;;;;5043433;28;20032;-57
2023/07/07 08:24:11;;;;;;;9.05;4.20;;;;;;;;;;5043956;28;20318;-51
2023/07/07 08:26:36;;;;;;;7.07;3.60;;;;;;;;;;5043309;28;20392;-55
2023/07/07 08:29:02;;;;;;;7.70;4.22;;;;;;;;;;5043650;28;20246;-55
2023/07/07 08:31:27;;;;;;;9.32;3.88;;;;;;;;;;5043708;28;20017;-56
2023/07/07 08:33:53;;;;;;;11.30;4.33;;;;;;;;;;5052796;28;20563;-55
2023/07/07 08:36:18;;;;;;;8.55;4.53;;;;;;;;;;5063458;28;20024;-57
2023/07/07 08:38:43;;;;;;;6.77;4.33;;;;;;;;;;5044056;28;20029;-56
2023/07/07 08:41:08;;;;;;;7.22;3.42;;;;;;;;;;5043034;28;20265;-55
2023/07/07 08:43:35;;;;;;;8.00;4.47;;;;;;;;;;5044134;28;20358;-53
2023/07/07 08:46:00;;;;;;;11.45;3.85;;;;;;;;;;5043573;28;20401;-52
2023/07/07 08:48:25;;;;;;;9.27;4.33;;;;;;;;;;5043651;28;20048;-58
2023/07/07 08:50:53;;;;;;;7.60;3.93;;;;;;;;;;5043424;28;20036;-57
2023/07/07 08:53:38;;;;;;;9.20;4.07;;;;;;;;;;5043373;28;20065;-56
2023/07/07 08:56:07;;;;;;;15.43;5.38;;;;;;;;;;5007493;28;20025;-56
2023/07/07 08:58:36;;;;;;;13.10;4.32;;;;;;;;;;5045037;28;20036;-55
2023/07/07 09:01:18;;;;;;;10.70;3.97;;;;;;;;;;5047192;28;20416;-56
2023/07/07 09:03:53;;;;;;;16.17;3.92;;;;;;;;;;5047691;28;20115;-57
2023/07/07 09:06:28;;;;;;;6.38;3.95;;;;;;;;;;5047584;28;20053;-57
2023/07/07 09:08:53;;;;;;;9.05;4.38;;;;;;;;;;5047487;28;20102;-53
2023/07/07 09:11:30;;;;;;;9.23;3.87;;;;;;;;;;5047926;28;20511;-54
2023/07/07 09:13:58;;;;;;;9.95;4.30;;;;;;;;;;5018170;28;20041;-53
2023/07/07 09:16:36;;;;;;;6.70;3.60;;;;;;;;;;5047424;28;20032;-53
2023/07/07 09:19:20;;;;;;;6.07;3.80;;;;;;;;;;4995560;28;20458;-52
2023/07/07 09:21:48;;;;;;;5.05;3.40;;;;;;;;;;5047096;28;20178;-57
2023/07/07 09:24:29;;;;;;;9.38;4.05;;;;;;;;;;5046911;28;20331;-55
2023/07/07 09:26:56;;;;;;;7.45;4.32;;;;;;;;;;5047082;28;20029;-55
2023/07/07 09:29:25;;;;;;;9.75;3.72;;;;;;;;;;5047244;28;20021;-57
2023/07/07 09:31:50;;;;;;;10.13;4.00;;;;;;;;;;5047494;28;20052;-57
2023/07/07 09:34:16;;;;;;;11.98;3.60;;;;;;;;;;5046767;28;20348;-54
2023/07/07 09:37:00;;;;;;;9.50;3.30;;;;;;;;;;5046687;28;20029;-56
2023/07/07 09:39:44;;;;;;;12.32;3.83;;;;;;;;;;5037454;28;20021;-56
2023/07/07 09:42:15;;;;;;;8.77;3.80;;;;;;;;;;5027434;28;20113;-52
2023/07/07 09:44:50;;;;;;;8.55;3.78;;;;;;;;;;5027442;28;20025;-54
2023/07/07 09:47:28;;;;;;;6.97;4.00;;;;;;;;;;5027159;28;20079;-56
2023/07/07 09:50:03;;;;;;;11.05;4.03;;;;;;;;;;5046124;28;20021;-53
2023/07/07 09:52:48;;;;;;;13.48;3.55;;;;;;;;;;5046103;28;20052;-50
2023/07/07 09:55:21;;;;;;;7.45;4.20;;;;;;;;;;5046284;28;20052;-56
2023/07/07 09:57:56;;;;;;;8.90;3.90;;;;;;;;;;5011037;28;20029;-51
2023/07/07 10:00:23;;;;;;;7.35;3.40;;;;;;;;;;5046975;28;20024;-53
2023/07/07 10:02:49;;;;;;;11.80;3.20;;;;;;;;;;5046640;28;20067;-53
2023/07/07 10:05:19;;;;;;;11.13;4.38;;;;;;;;;;5046606;28;20049;-54
2023/07/07 10:07:44;;;;;;;15.82;4.10;;;;;;;;;;5046693;28;20047;-53
2023/07/07 10:10:13;;;;;;;6.72;3.58;;;;;;;;;;5045036;28;20025;-54
2023/07/07 10:12:38;;;;;;;9.40;3.95;;;;;;;;;;5046893;28;20017;-55
2023/07/07 10:15:22;;;;;;;8.52;3.50;;;;;;;;;;5046521;28;20025;-52
2023/07/07 10:17:53;;;;;;;9.85;3.33;;;;;;;;;;5046514;28;20077;-55
2023/07/07 10:20:18;;;;;;;10.27;3.75;;;;;;;;;;5046226;28;20036;-54
2023/07/07 10:22:43;;;;;;;8.40;3.40;;;;;;;;;;5046054;28;20127;-56
2023/07/07 10:25:12;;;;;;;8.20;3.30;;;;;;;;;;5046086;28;20379;-53
2023/07/07 10:27:38;;;;;;;11.40;3.33;;;;;;;;;;5046629;28;20482;-52
2023/07/07 10:30:04;;;;;;;13.68;3.13;;;;;;;;;;5046030;28;20109;-56
2023/07/07 10:32:29;;;;;;;8.10;3.40;;;;;;;;;;5045906;28;20029;-54
2023/07/07 10:34:58;;;;;;;6.45;2.92;;;;;;;;;;5063556;28;20032;-54
2023/07/07 10:37:29;;;;;;;12.32;3.50;;;;;;;;;;5066077;28;20035;-52
2023/07/07 10:39:55;;;;;;;7.38;4.22;;;;;;;;;;5057323;28;20051;-55
2023/07/07 10:42:23;;;;;;;8.90;3.60;;;;;;;;;;5066190;28;20370;-56
2023/07/07 10:44:49;;;;;;;5.72;3.50;;;;;;;;;;5030498;28;20037;-54
2023/07/07 10:47:16;;;;;;;6.50;3.80;;;;;;;;;;5065716;28;20490;-55
2023/07/07 10:49:42;;;;;;;10.07;3.60;;;;;;;;;;5054950;28;20039;-55
2023/07/07 10:52:11;;;;;;;12.80;3.53;;;;;;;;;;5045471;28;20049;-54
2023/07/07 10:54:43;;;;;;;18.65;4.43;;;;;;;;;;5045411;28;20725;-53
2023/07/07 10:57:23;;;;;;;7.40;3.13;;;;;;;;;;5045571;28;20017;-56
2023/07/07 10:59:55;;;;;;;7.47;3.42;;;;;;;;;;5045481;28;20119;-51
2023/07/07 11:02:47;;;;;;;7.68;3.22;;;;;;;;;;5045392;28;20032;-54
2023/07/07 11:05:13;;;;;;;6.47;3.28;;;;;;;;;;4979173;28;20611;-51
2023/07/07 11:07:47;;;;;;;6.50;3.17;;;;;;;;;;4962231;28;20038;-50
2023/07/07 11:10:15;;;;;;;6.38;3.22;;;;;;;;;;4962320;28;20418;-56
2023/07/07 11:12:40;;;;;;;7.53;3.38;;;;;;;;;;4954809;28;20028;-57
2023/07/07 11:15:06;;;;;;;4.53;3.13;;;;;;;;;;4963813;28;20197;-54
2023/07/07 11:17:31;;;;;;;5.47;3.03;;;;;;;;;;4947630;28;20492;-50
2023/07/07 11:20:05;;;;;;;6.03;3.27;;;;;;;;;;4963698;28;20139;-56
2023/07/07 11:22:30;;;;;;;6.97;3.42;;;;;;;;;;4963315;28;20473;-53
2023/07/07 11:25:16;;;;;;;12.30;3.55;;;;;;;;;;4963644;28;20050;-57
2023/07/07 11:27:59;;;;;;;10.23;3.38;;;;;;;;;;4963552;28;20093;-54
2023/07/07 11:30:27;;;;;;;9.63;3.88;;;;;;;;;;4963459;28;20030;-52
2023/07/07 11:32:52;;;;;;;4.93;3.00;;;;;;;;;;4963212;28;20030;-55
2023/07/07 11:35:29;;;;;;;5.53;3.57;;;;;;;;;;4963694;28;20034;-56
2023/07/07 11:37:55;;;;;;;9.35;3.33;;;;;;;;;;4963027;28;20034;-53
2023/07/07 11:40:38;;;;;;;7.17;3.07;;;;;;;;;;4956414;28;20609;-53
2023/07/07 11:43:16;;;;;;;6.88;3.25;;;;;;;;;;5052529;28;20076;-53
2023/07/07 11:46:13;;;;;;;6.13;3.58;;;;;;;;;;5028207;28;20463;-53
2023/07/07 11:48:44;;;;;;;9.38;3.20;;;;;;;;;;4957500;28;20039;-55
2023/07/07 11:51:15;;;;;;;10.80;3.63;;;;;;;;;;4945256;28;20372;-50
2023/07/07 11:53:40;;;;;;;9.05;3.83;;;;;;;;;;4960685;28;20081;-55
2023/07/07 11:56:25;;;;;;;13.80;3.20;;;;;;;;;;4963416;28;20426;-49
2023/07/07 11:59:01;;;;;;;6.45;3.42;;;;;;;;;;4963039;28;20304;-50
2023/07/07 12:01:31;;;;;;;5.65;3.22;;;;;;;;;;4950274;28;20434;-52
2023/07/07 12:04:08;;;;;;;5.65;3.55;;;;;;;;;;4962419;28;20560;-51
2023/07/07 12:06:36;;;;;;;9.05;3.55;;;;;;;;;;4961465;28;20022;-53
2023/07/07 12:09:01;;;;;;;8.25;3.20;;;;;;;;;;4944025;28;20572;-52
2023/07/07 12:11:28;;;;;;;13.50;3.85;;;;;;;;;;4955815;28;20062;-52
2023/07/07 12:14:20;;;;;;;5.80;3.17;;;;;;;;;;4962217;28;20031;-53
2023/07/07 12:16:46;;;;;;;6.07;3.42;;;;;;;;;;4905586;29;20132;-49
2023/07/07 12:19:31;;;;;;;9.93;3.58;;;;;;;;;;4907415;29;20453;-52
2023/07/07 12:21:58;;;;;;;10.32;3.58;;;;;;;;;;4913414;29;20060;-51
2023/07/07 12:24:26;;;;;;;11.52;4.20;;;;;;;;;;4927277;29;20050;-52
2023/07/07 12:26:58;;;;;;;11.88;3.60;;;;;;;;;;4943256;28;20027;-48
2023/07/07 12:29:24;;;;;;;8.82;3.22;;;;;;;;;;4943601;29;20090;-54
2023/07/07 12:31:49;;;;;;;6.13;3.20;;;;;;;;;;4943141;28;20027;-50
2023/07/07 12:34:18;;;;;;;6.38;3.67;;;;;;;;;;4943200;29;20051;-49
2023/07/07 12:36:45;;;;;;;6.32;3.40;;;;;;;;;;4943516;28;20027;-53
2023/07/07 12:39:10;;;;;;;7.07;3.15;;;;;;;;;;4931544;28;20111;-51
2023/07/07 12:41:36;;;;;;;6.30;3.73;;;;;;;;;;4940416;29;20503;-54
2023/07/07 12:44:03;;;;;;;13.93;3.63;;;;;;;;;;4943744;29;21090;-52
2023/07/07 12:46:31;;;;;;;13.70;3.30;;;;;;;;;;4946542;28;20423;-50
2023/07/07 12:48:59;;;;;;;5.35;2.90;;;;;;;;;;4943718;29;20034;-49
2023/07/07 12:51:29;;;;;;;8.60;3.53;;;;;;;;;;4943570;28;20038;-53
2023/07/07 12:53:55;;;;;;;6.55;3.20;;;;;;;;;;4987669;28;20107;-50
2023/07/07 12:56:24;;;;;;;7.93;3.80;;;;;;;;;;5023755;28;20013;-52
2023/07/07 12:58:52;;;;;;;8.98;3.80;;;;;;;;;;5023940;28;20176;-52
2023/07/07 13:01:17;;;;;;;6.22;3.88;;;;;;;;;;5024394;28;20032;-54
2023/07/07 13:03:43;;;;;;;8.57;3.90;;;;;;;;;;5005081;28;20022;-54
2023/07/07 13:06:41;;;;;;;5.57;3.63;;;;;;;;;;5022684;28;20331;-53
2023/07/07 13:09:12;;;;;;;5.80;3.70;;;;;;;;;;4943130;29;20037;-50
2023/07/07 13:11:39;;;;;;;13.50;3.65;;;;;;;;;;4937685;29;20415;-53
2023/07/07 13:14:06;;;;;;;10.10;4.45;;;;;;;;;;4924209;29;20042;-53
2023/07/07 13:16:31;;;;;;;7.85;3.90;;;;;;;;;;4923932;29;20031;-53
2023/07/07 13:18:56;;;;;;;7.43;3.80;;;;;;;;;;4923924;29;20031;-54
2023/07/07 13:21:26;;;;;;;5.95;3.40;;;;;;;;;;4923860;29;20430;-51
2023/07/07 13:23:51;;;;;;;4.93;3.35;;;;;;;;;;4924162;29;20032;-57
2023/07/07 13:26:23;;;;;;;602.72;516.15;;;;;;;;;;4936977;28;20031;-53
2023/07/07 13:28:48;;;;;;;7.95;4.45;;;;;;;;;;4941977;29;20387;-51
2023/07/07 13:31:14;;;;;;;5.67;3.37;;;;;;;;;;4942804;29;20384;-51
2023/07/07 13:33:40;;;;;;;5.13;3.75;;;;;;;;;;4942768;29;20038;-54
2023/07/07 13:36:07;;;;;;;5.68;3.53;;;;;;;;;;4942535;28;20491;-53
2023/07/07 13:38:35;;;;;;;8.95;3.50;;;;;;;;;;4943115;29;20492;-51
2023/07/07 13:41:01;;;;;;;10.53;3.70;;;;;;;;;;4942908;29;20035;-54
2023/07/07 13:43:39;;;;;;;6.03;3.53;;;;;;;;;;4943255;28;20505;-52
2023/07/07 13:46:15;;;;;;;11.90;3.78;;;;;;;;;;5026790;28;20025;-51
2023/07/07 13:48:42;;;;;;;6.50;3.70;;;;;;;;;;5027176;28;20026;-54
2023/07/07 13:51:15;;;;;;;11.57;3.35;;;;;;;;;;5027054;28;20036;-53
2023/07/07 13:53:40;;;;;;;6.22;3.45;;;;;;;;;;5044885;28;20492;-55
2023/07/07 13:56:06;;;;;;;6.20;3.77;;;;;;;;;;5047266;28;20059;-50
2023/07/07 13:58:31;;;;;;;8.18;3.58;;;;;;;;;;5046853;28;20037;-54
2023/07/07 14:01:02;;;;;;;8.05;3.55;;;;;;;;;;5046927;28;20108;-55
2023/07/07 14:03:28;;;;;;;10.45;3.55;;;;;;;;;;5046617;28;20028;-53
2023/07/07 14:05:55;;;;;;;6.05;3.33;;;;;;;;;;5029122;28;20025;-54
2023/07/07 14:08:25;;;;;;;5.75;3.38;;;;;;;;;;5046843;28;20025;-52
2023/07/07 14:10:54;;;;;;;8.32;3.60;;;;;;;;;;5046865;28;20338;-56
2023/07/07 14:13:30;;;;;;;8.45;3.70;;;;;;;;;;5046632;28;20116;-50
2023/07/07 14:16:13;;;;;;;4.78;3.33;;;;;;;;;;5046331;28;20025;-54
2023/07/07 14:18:46;;;;;;;7.25;3.65;;;;;;;;;;5046221;28;20048;-51
2023/07/07 14:21:13;;;;;;;8.52;3.40;;;;;;;;;;5046624;28;20578;-54
2023/07/07 14:23:41;;;;;;;7.77;3.90;;;;;;;;;;5046741;28;20119;-51
2023/07/07 14:26:12;;;;;;;8.63;4.47;;;;;;;;;;5046418;28;20419;-51
2023/07/07 14:28:37;;;;;;;6.18;3.88;;;;;;;;;;5046027;28;20098;-50
2023/07/07 14:31:06;;;;;;;7.18;3.40;;;;;;;;;;5046412;28;20059;-53
2023/07/07 14:33:31;;;;;;;;;;;;;;;;;;5046509;28;20086;-54